createdAt,value
2017-02-13T00:00:35.138Z,0
2017-02-13T00:01:43.225Z,0
2017-02-13T00:02:51.324Z,0
2017-02-13T00:03:59.410Z,0
2017-02-13T00:05:07.492Z,0
2017-02-13T00:06:15.583Z,0
2017-02-13T00:07:23.671Z,0
2017-02-13T00:08:31.752Z,0
2017-02-13T00:09:39.837Z,0
2017-02-13T00:10:47.931Z,0
2017-02-13T00:11:56.019Z,0
2017-02-13T00:13:04.110Z,0
2017-02-13T00:14:12.193Z,0
2017-02-13T00:15:20.285Z,0
2017-02-13T00:16:28.368Z,0
2017-02-13T00:17:36.454Z,0
2017-02-13T00:18:44.547Z,0
2017-02-13T00:19:52.632Z,0
2017-02-13T00:21:00.717Z,0
2017-02-13T00:22:08.807Z,0
2017-02-13T00:23:16.894Z,0
2017-02-13T00:24:24.981Z,0
2017-02-13T00:25:33.069Z,0
2017-02-13T00:26:41.159Z,0
2017-02-13T00:27:49.244Z,0
2017-02-13T00:28:57.327Z,0
2017-02-13T00:30:05.417Z,0
2017-02-13T00:31:13.509Z,0
2017-02-13T00:32:21.592Z,0
2017-02-13T00:33:29.682Z,0
2017-02-13T00:34:37.772Z,0
2017-02-13T00:35:45.858Z,0
2017-02-13T00:36:53.942Z,0
2017-02-13T00:38:02.030Z,0
2017-02-13T00:39:10.114Z,0
2017-02-13T00:40:18.197Z,0
2017-02-13T00:41:26.283Z,0
2017-02-13T00:42:34.374Z,0
2017-02-13T00:43:42.464Z,0
2017-02-13T00:44:50.543Z,0
2017-02-13T00:45:58.631Z,0
2017-02-13T00:47:06.727Z,0
2017-02-13T00:48:14.802Z,0
2017-02-13T00:49:22.885Z,0
2017-02-13T00:50:30.973Z,0
2017-02-13T00:51:39.060Z,0
2017-02-13T00:52:47.143Z,0
2017-02-13T00:53:55.229Z,0
2017-02-13T00:55:03.318Z,0
2017-02-13T00:56:11.404Z,0
2017-02-13T00:57:19.491Z,0
2017-02-13T00:58:27.583Z,0
2017-02-13T00:59:35.671Z,0
2017-02-13T01:00:43.751Z,0
2017-02-13T01:01:51.849Z,0
2017-02-13T01:02:59.942Z,0
2017-02-13T01:04:08.022Z,0
2017-02-13T01:05:16.110Z,0
2017-02-13T01:06:24.202Z,0
2017-02-13T01:07:32.285Z,0
2017-02-13T01:08:40.371Z,0
2017-02-13T01:09:48.461Z,0
2017-02-13T01:10:56.570Z,0
2017-02-13T01:12:04.638Z,0
2017-02-13T01:13:12.723Z,0
2017-02-13T01:14:20.810Z,0
2017-02-13T01:15:28.896Z,0
2017-02-13T01:16:36.978Z,0
2017-02-13T01:17:45.068Z,0
2017-02-13T01:18:53.154Z,0
2017-02-13T01:20:01.261Z,0
2017-02-13T01:21:09.338Z,0
2017-02-13T01:22:17.420Z,0
2017-02-13T01:23:25.508Z,0
2017-02-13T01:24:33.591Z,0
2017-02-13T01:25:41.679Z,0
2017-02-13T01:26:49.761Z,0
2017-02-13T01:27:57.846Z,0
2017-02-13T01:29:05.934Z,0
2017-02-13T01:30:14.024Z,0
2017-02-13T01:31:22.108Z,0
2017-02-13T01:32:30.198Z,0
2017-02-13T01:33:38.290Z,0
2017-02-13T01:34:46.376Z,0
2017-02-13T01:35:54.460Z,0
2017-02-13T01:37:02.552Z,0
2017-02-13T01:38:10.639Z,0
2017-02-13T01:39:18.729Z,0
2017-02-13T01:40:26.817Z,0
2017-02-13T01:41:34.906Z,0
2017-02-13T01:42:42.990Z,0
2017-02-13T01:43:51.083Z,0
2017-02-13T01:44:59.171Z,0
2017-02-13T01:46:07.257Z,0
2017-02-13T01:47:15.349Z,0
2017-02-13T01:48:23.428Z,0
2017-02-13T01:49:31.517Z,0
2017-02-13T01:50:39.607Z,0
2017-02-13T01:51:47.690Z,0
2017-02-13T01:52:55.780Z,0
2017-02-13T01:54:03.865Z,0
2017-02-13T01:55:11.944Z,0
2017-02-13T01:56:20.033Z,0
2017-02-13T01:57:28.131Z,0
2017-02-13T01:57:28.143Z,0
2017-02-13T01:58:36.206Z,0
2017-02-13T01:59:44.291Z,0
2017-02-13T02:00:52.379Z,0
2017-02-13T02:02:00.475Z,0
2017-02-13T02:03:08.560Z,0
2017-02-13T02:04:16.642Z,0
2017-02-13T02:05:24.735Z,0
2017-02-13T02:06:32.818Z,0
2017-02-13T02:07:40.900Z,0
2017-02-13T02:08:48.992Z,0
2017-02-13T02:09:57.077Z,0
2017-02-13T02:11:05.163Z,0
2017-02-13T02:12:13.253Z,0
2017-02-13T02:13:21.342Z,0
2017-02-13T02:14:29.514Z,0
2017-02-13T02:15:37.521Z,0
2017-02-13T02:16:45.614Z,0
2017-02-13T02:17:53.695Z,0
2017-02-13T02:19:01.782Z,0
2017-02-13T02:20:09.873Z,0
2017-02-13T02:21:17.965Z,0
2017-02-13T02:22:26.052Z,0
2017-02-13T02:23:34.134Z,0
2017-02-13T02:24:42.223Z,0
2017-02-13T02:25:50.309Z,0
2017-02-13T02:26:58.397Z,0
2017-02-13T02:28:06.483Z,0
2017-02-13T02:29:14.571Z,0
2017-02-13T02:30:22.651Z,0
2017-02-13T02:31:30.800Z,0
2017-02-13T02:32:38.843Z,0
2017-02-13T02:33:46.927Z,0
2017-02-13T02:34:55.010Z,0
2017-02-13T02:36:03.099Z,0
2017-02-13T02:37:11.185Z,0
2017-02-13T02:38:19.267Z,0
2017-02-13T02:39:27.350Z,0
2017-02-13T02:40:35.439Z,0
2017-02-13T02:41:43.528Z,0
2017-02-13T02:42:51.611Z,0
2017-02-13T02:43:59.714Z,0
2017-02-13T02:45:07.791Z,0
2017-02-13T02:46:15.876Z,0
2017-02-13T02:47:23.958Z,0
2017-02-13T02:48:32.114Z,0
2017-02-13T02:49:40.131Z,0
2017-02-13T02:50:48.215Z,0
2017-02-13T02:51:56.305Z,0
2017-02-13T02:53:04.389Z,0
2017-02-13T02:54:12.472Z,0
2017-02-13T02:55:20.561Z,0
2017-02-13T02:56:28.652Z,0
2017-02-13T02:57:36.739Z,0
2017-02-13T02:58:44.826Z,0
2017-02-13T02:59:52.906Z,0
2017-02-13T03:01:00.994Z,0
2017-02-13T03:02:09.079Z,0
2017-02-13T03:03:17.160Z,0
2017-02-13T03:04:25.250Z,0
2017-02-13T03:05:33.334Z,0
2017-02-13T03:06:41.420Z,0
2017-02-13T03:07:49.509Z,0
2017-02-13T03:08:57.596Z,0
2017-02-13T03:10:05.677Z,0
2017-02-13T03:11:13.764Z,0
2017-02-13T03:12:21.852Z,0
2017-02-13T03:13:29.936Z,0
2017-02-13T03:14:38.021Z,0
2017-02-13T03:15:46.109Z,0
2017-02-13T03:16:54.198Z,0
2017-02-13T03:18:02.280Z,0
2017-02-13T03:19:10.367Z,0
2017-02-13T03:20:18.451Z,0
2017-02-13T03:21:26.538Z,0
2017-02-13T03:22:34.622Z,0
2017-02-13T03:23:42.714Z,0
2017-02-13T03:24:50.801Z,0
2017-02-13T03:25:58.885Z,0
2017-02-13T03:27:06.969Z,0
2017-02-13T03:28:15.063Z,0
2017-02-13T03:29:23.149Z,0
2017-02-13T03:30:31.229Z,0
2017-02-13T03:31:39.318Z,0
2017-02-13T03:32:47.411Z,0
2017-02-13T03:33:55.492Z,0
2017-02-13T03:35:03.581Z,0
2017-02-13T03:36:11.665Z,0
2017-02-13T03:37:19.750Z,0
2017-02-13T03:38:27.838Z,0
2017-02-13T03:39:35.928Z,0
2017-02-13T03:40:44.020Z,0
2017-02-13T03:41:52.103Z,0
2017-02-13T03:43:00.196Z,0
2017-02-13T03:44:08.285Z,0
2017-02-13T03:45:16.367Z,0
2017-02-13T03:46:24.455Z,0
2017-02-13T03:47:32.547Z,0
2017-02-13T03:48:40.634Z,0
2017-02-13T03:49:48.722Z,0
2017-02-13T03:50:56.819Z,0
2017-02-13T03:52:04.907Z,0
2017-02-13T03:53:12.986Z,0
2017-02-13T03:54:21.073Z,0
2017-02-13T03:55:29.170Z,0
2017-02-13T03:56:37.258Z,0
2017-02-13T03:57:45.348Z,0
2017-02-13T03:58:53.440Z,0
2017-02-13T04:00:01.521Z,0
2017-02-13T04:01:09.612Z,0
2017-02-13T04:02:17.694Z,0
2017-02-13T04:03:25.815Z,0
2017-02-13T04:04:33.877Z,0
2017-02-13T04:05:41.956Z,0
2017-02-13T04:06:50.045Z,0
2017-02-13T04:07:58.127Z,0
2017-02-13T04:09:06.212Z,0
2017-02-13T04:10:14.299Z,0
2017-02-13T04:11:22.390Z,0
2017-02-13T04:12:30.488Z,0
2017-02-13T04:13:38.571Z,0
2017-02-13T04:14:46.658Z,0
2017-02-13T04:15:54.740Z,0
2017-02-13T04:17:02.823Z,0
2017-02-13T04:18:10.909Z,0
2017-02-13T04:19:19.007Z,0
2017-02-13T04:20:27.097Z,0
2017-02-13T04:21:35.177Z,0
2017-02-13T04:22:43.274Z,0
2017-02-13T04:23:51.361Z,0
2017-02-13T04:24:59.447Z,0
2017-02-13T04:26:07.539Z,0
2017-02-13T04:27:15.624Z,0
2017-02-13T04:28:23.710Z,0
2017-02-13T04:29:31.791Z,0
2017-02-13T04:30:39.920Z,0
2017-02-13T04:31:47.968Z,0
2017-02-13T04:32:56.051Z,0
2017-02-13T04:34:04.141Z,0
2017-02-13T04:35:12.228Z,0
2017-02-13T04:36:20.319Z,0
2017-02-13T04:37:28.409Z,0
2017-02-13T04:38:36.492Z,0
2017-02-13T04:39:44.577Z,0
2017-02-13T04:40:52.659Z,0
2017-02-13T04:42:00.751Z,0
2017-02-13T04:43:08.834Z,0
2017-02-13T04:44:16.918Z,0
2017-02-13T04:45:25.003Z,0
2017-02-13T04:46:33.099Z,0
2017-02-13T04:47:41.189Z,0
2017-02-13T04:48:49.278Z,0
2017-02-13T04:49:57.365Z,0
2017-02-13T04:51:05.450Z,0
2017-02-13T04:52:13.536Z,0
2017-02-13T04:53:21.618Z,0
2017-02-13T04:54:29.706Z,0
2017-02-13T04:55:37.793Z,0
2017-02-13T04:56:45.876Z,0
2017-02-13T04:57:53.964Z,0
2017-02-13T04:59:02.052Z,0
2017-02-13T05:00:10.139Z,0
2017-02-13T05:01:18.217Z,0
2017-02-13T05:02:26.312Z,0
2017-02-13T05:03:34.401Z,0
2017-02-13T05:04:42.481Z,0
2017-02-13T05:05:50.571Z,0
2017-02-13T05:06:58.657Z,0
2017-02-13T05:08:06.741Z,0
2017-02-13T05:09:14.826Z,0
2017-02-13T05:10:22.919Z,0
2017-02-13T05:11:31.008Z,0
2017-02-13T05:12:39.089Z,0
2017-02-13T05:13:47.204Z,0
2017-02-13T05:14:55.261Z,0
2017-02-13T05:16:03.345Z,0
2017-02-13T05:17:11.436Z,0
2017-02-13T05:18:19.527Z,0
2017-02-13T05:19:27.611Z,0
2017-02-13T05:20:35.697Z,0
2017-02-13T05:21:43.792Z,0
2017-02-13T05:22:51.876Z,0
2017-02-13T05:23:59.964Z,0
2017-02-13T05:25:08.056Z,0
2017-02-13T05:26:16.140Z,0
2017-02-13T05:27:24.230Z,0
2017-02-13T05:28:32.310Z,0
2017-02-13T05:29:40.398Z,0
2017-02-13T05:30:48.482Z,0
2017-02-13T05:31:56.563Z,0
2017-02-13T05:33:04.650Z,0
2017-02-13T05:34:12.825Z,0
2017-02-13T05:35:20.828Z,0
2017-02-13T05:36:28.908Z,0
2017-02-13T05:37:36.998Z,0
2017-02-13T05:38:45.089Z,0
2017-02-13T05:39:53.175Z,0
2017-02-13T05:41:01.260Z,0
2017-02-13T05:42:09.348Z,0
2017-02-13T05:43:17.428Z,0
2017-02-13T05:44:25.517Z,0
2017-02-13T05:45:33.605Z,0
2017-02-13T05:46:41.699Z,0
2017-02-13T05:47:49.777Z,0
2017-02-13T05:48:57.866Z,0
2017-02-13T05:50:05.956Z,0
2017-02-13T05:51:14.106Z,0
2017-02-13T05:52:22.128Z,0
2017-02-13T05:53:30.221Z,0
2017-02-13T05:54:38.318Z,0
2017-02-13T05:55:46.387Z,0
2017-02-13T05:56:54.479Z,0
2017-02-13T05:58:02.563Z,0
2017-02-13T05:59:10.655Z,0
2017-02-13T06:00:18.737Z,0
2017-02-13T06:01:26.837Z,0
2017-02-13T06:02:34.920Z,0
2017-02-13T06:03:43.007Z,0
2017-02-13T06:04:51.094Z,0
2017-02-13T06:05:59.183Z,0
2017-02-13T06:07:07.260Z,0
2017-02-13T06:08:15.394Z,0
2017-02-13T06:09:23.437Z,0
2017-02-13T06:10:31.522Z,0
2017-02-13T06:11:39.603Z,0
2017-02-13T06:12:47.696Z,0
2017-02-13T06:13:55.782Z,0
2017-02-13T06:15:03.868Z,0
2017-02-13T06:16:11.953Z,0
2017-02-13T06:17:20.044Z,0
2017-02-13T06:18:28.124Z,0
2017-02-13T06:19:36.211Z,0
2017-02-13T06:20:44.296Z,0
2017-02-13T06:21:52.384Z,0
2017-02-13T06:23:00.469Z,0
2017-02-13T06:24:08.549Z,0
2017-02-13T06:25:16.642Z,0
2017-02-13T06:26:24.734Z,0
2017-02-13T06:27:32.813Z,0
2017-02-13T06:28:40.903Z,0
2017-02-13T06:29:48.991Z,0
2017-02-13T06:30:57.073Z,0
2017-02-13T06:32:05.158Z,0
2017-02-13T06:33:13.249Z,0
2017-02-13T06:34:21.333Z,0
2017-02-13T06:35:29.415Z,0
2017-02-13T06:36:37.504Z,0
2017-02-13T06:37:45.595Z,0
2017-02-13T06:38:53.678Z,0
2017-02-13T06:40:02.317Z,0
2017-02-13T06:41:09.847Z,0
2017-02-13T06:42:17.929Z,0
2017-02-13T06:43:26.017Z,0
2017-02-13T06:44:34.104Z,0
2017-02-13T06:45:42.196Z,0
2017-02-13T06:46:50.280Z,0
2017-02-13T06:47:58.384Z,0
2017-02-13T06:49:06.463Z,0
2017-02-13T06:50:14.547Z,0
2017-02-13T06:51:22.629Z,0
2017-02-13T06:52:30.719Z,0
2017-02-13T06:53:38.805Z,0
2017-02-13T06:54:46.891Z,0
2017-02-13T06:55:54.975Z,4
2017-02-13T06:57:03.070Z,4
2017-02-13T06:58:11.154Z,4
2017-02-13T06:59:19.234Z,0
2017-02-13T07:00:27.328Z,0
2017-02-13T07:01:35.419Z,0
2017-02-13T07:02:43.506Z,0
2017-02-13T07:03:51.596Z,0
2017-02-13T07:04:59.978Z,0
2017-02-13T07:06:07.767Z,0
2017-02-13T07:07:15.848Z,0
2017-02-13T07:08:23.936Z,0
2017-02-13T07:09:32.023Z,0
2017-02-13T07:10:40.102Z,0
2017-02-13T07:11:48.194Z,4
2017-02-13T07:12:56.287Z,4
2017-02-13T07:14:04.378Z,4
2017-02-13T07:15:12.457Z,4
2017-02-13T07:16:20.548Z,4
2017-02-13T07:17:28.636Z,4
2017-02-13T07:18:36.717Z,0
2017-02-13T07:19:44.806Z,0
2017-02-13T07:20:52.892Z,0
2017-02-13T07:22:00.984Z,0
2017-02-13T07:23:09.066Z,0
2017-02-13T07:24:17.507Z,0
2017-02-13T07:25:25.646Z,0
2017-02-13T07:26:33.324Z,0
2017-02-13T07:27:41.410Z,0
2017-02-13T07:28:49.497Z,0
2017-02-13T07:29:57.579Z,0
2017-02-13T07:31:06.048Z,0
2017-02-13T07:32:13.789Z,0
2017-02-13T07:33:22.025Z,0
2017-02-13T07:34:30.528Z,0
2017-02-13T07:35:38.016Z,0
2017-02-13T07:36:46.099Z,0
2017-02-13T07:37:54.184Z,0
2017-02-13T07:39:02.269Z,0
2017-02-13T07:40:10.765Z,0
2017-02-13T07:41:19.024Z,4
2017-02-13T07:42:26.545Z,4
2017-02-13T07:43:34.606Z,4
2017-02-13T07:44:42.698Z,4
2017-02-13T07:45:51.068Z,4
2017-02-13T07:46:59.070Z,4
2017-02-13T07:48:07.344Z,4
2017-02-13T07:49:15.428Z,4
2017-02-13T07:50:23.128Z,4
2017-02-13T07:51:31.219Z,0
2017-02-13T07:52:39.411Z,4
2017-02-13T07:53:47.395Z,4
2017-02-13T07:54:55.489Z,4
2017-02-13T07:56:03.570Z,4
2017-02-13T07:57:11.657Z,4
2017-02-13T07:58:20.017Z,4
2017-02-13T07:59:28.025Z,4
2017-02-13T08:00:35.931Z,8
2017-02-13T08:01:44.008Z,8
2017-02-13T08:02:52.095Z,4
2017-02-13T08:04:00.183Z,4
2017-02-13T08:05:08.263Z,4
2017-02-13T08:06:16.349Z,4
2017-02-13T08:07:24.438Z,4
2017-02-13T08:08:32.521Z,4
2017-02-13T08:09:40.606Z,4
2017-02-13T08:10:48.696Z,4
2017-02-13T08:11:56.784Z,8
2017-02-13T08:13:04.866Z,4
2017-02-13T08:14:12.947Z,8
2017-02-13T08:15:21.039Z,4
2017-02-13T08:16:29.124Z,8
2017-02-13T08:17:37.205Z,8
2017-02-13T08:18:45.297Z,8
2017-02-13T08:19:53.384Z,8
2017-02-13T08:21:01.471Z,8
2017-02-13T08:22:09.556Z,8
2017-02-13T08:23:17.722Z,8
2017-02-13T08:24:25.730Z,8
2017-02-13T08:25:33.818Z,8
2017-02-13T08:26:41.905Z,8
2017-02-13T08:27:49.988Z,8
2017-02-13T08:28:58.067Z,8
2017-02-13T08:30:06.156Z,8
2017-02-13T08:31:15.266Z,8
2017-02-13T08:32:22.335Z,12
2017-02-13T08:33:30.413Z,8
2017-02-13T08:34:38.507Z,8
2017-02-13T08:35:46.946Z,12
2017-02-13T08:36:55.151Z,8
2017-02-13T08:38:02.763Z,8
2017-02-13T08:39:11.435Z,12
2017-02-13T08:40:18.942Z,8
2017-02-13T08:41:27.025Z,12
2017-02-13T08:42:35.115Z,8
2017-02-13T08:43:43.202Z,8
2017-02-13T08:44:51.285Z,8
2017-02-13T08:45:59.399Z,12
2017-02-13T08:47:07.466Z,8
2017-02-13T08:48:15.555Z,8
2017-02-13T08:49:23.646Z,8
2017-02-13T08:50:31.733Z,8
2017-02-13T08:51:39.817Z,8
2017-02-13T08:52:47.899Z,12
2017-02-13T08:53:56.091Z,12
2017-02-13T08:55:04.205Z,12
2017-02-13T08:56:12.158Z,8
2017-02-13T08:57:20.540Z,12
2017-02-13T08:58:28.350Z,12
2017-02-13T08:59:36.435Z,12
2017-02-13T09:00:44.519Z,12
2017-02-13T09:01:52.648Z,12
2017-02-13T09:03:00.804Z,16
2017-02-13T09:04:08.779Z,12
2017-02-13T09:05:16.869Z,12
2017-02-13T09:06:24.959Z,16
2017-02-13T09:07:33.046Z,16
2017-02-13T09:08:41.290Z,12
2017-02-13T09:09:49.214Z,12
2017-02-13T09:10:57.368Z,12
2017-02-13T09:12:05.386Z,12
2017-02-13T09:13:13.471Z,12
2017-02-13T09:14:21.564Z,12
2017-02-13T09:15:29.911Z,12
2017-02-13T09:16:37.739Z,16
2017-02-13T09:17:45.832Z,12
2017-02-13T09:18:54.460Z,16
2017-02-13T09:20:02.212Z,16
2017-02-13T09:21:10.085Z,16
2017-02-13T09:22:18.177Z,12
2017-02-13T09:23:26.267Z,12
2017-02-13T09:24:34.346Z,12
2017-02-13T09:25:42.432Z,12
2017-02-13T09:26:50.959Z,12
2017-02-13T09:27:58.605Z,12
2017-02-13T09:29:06.924Z,12
2017-02-13T09:30:14.775Z,12
2017-02-13T09:31:22.856Z,12
2017-02-13T09:32:30.942Z,16
2017-02-13T09:33:39.036Z,12
2017-02-13T09:34:47.129Z,12
2017-02-13T09:35:55.653Z,16
2017-02-13T09:37:03.297Z,16
2017-02-13T09:38:11.383Z,12
2017-02-13T09:39:19.470Z,16
2017-02-13T09:40:27.551Z,16
2017-02-13T09:41:35.642Z,16
2017-02-13T09:42:43.723Z,16
2017-02-13T09:43:51.805Z,20
2017-02-13T09:44:59.891Z,16
2017-02-13T09:46:07.978Z,20
2017-02-13T09:47:16.070Z,16
2017-02-13T09:48:24.150Z,16
2017-02-13T09:49:32.237Z,16
2017-02-13T09:50:40.323Z,20
2017-02-13T09:51:48.408Z,16
2017-02-13T09:52:56.496Z,20
2017-02-13T09:54:04.583Z,16
2017-02-13T09:55:12.664Z,20
2017-02-13T09:56:20.748Z,20
2017-02-13T09:57:28.841Z,20
2017-02-13T09:58:36.925Z,20
2017-02-13T09:59:45.474Z,20
2017-02-13T10:00:53.392Z,24
2017-02-13T10:02:01.373Z,20
2017-02-13T10:03:09.284Z,20
2017-02-13T10:04:17.365Z,20
2017-02-13T10:05:25.455Z,16
2017-02-13T10:06:33.539Z,20
2017-02-13T10:07:41.621Z,16
2017-02-13T10:08:49.710Z,16
2017-02-13T10:09:57.797Z,16
2017-02-13T10:11:05.882Z,16
2017-02-13T10:12:13.964Z,16
2017-02-13T10:13:22.056Z,16
2017-02-13T10:14:30.139Z,12
2017-02-13T10:15:38.223Z,16
2017-02-13T10:16:46.315Z,16
2017-02-13T10:17:54.398Z,16
2017-02-13T10:19:02.484Z,16
2017-02-13T10:20:10.571Z,16
2017-02-13T10:21:18.668Z,16
2017-02-13T10:22:26.751Z,16
2017-02-13T10:23:34.840Z,20
2017-02-13T10:24:42.928Z,16
2017-02-13T10:25:51.012Z,16
2017-02-13T10:26:59.102Z,20
2017-02-13T10:28:07.186Z,24
2017-02-13T10:29:15.273Z,20
2017-02-13T10:30:23.765Z,20
2017-02-13T10:31:31.535Z,20
2017-02-13T10:32:39.530Z,20
2017-02-13T10:33:47.616Z,20
2017-02-13T10:34:55.715Z,20
2017-02-13T10:36:03.803Z,20
2017-02-13T10:37:11.869Z,20
2017-02-13T10:38:19.960Z,20
2017-02-13T10:39:28.045Z,20
2017-02-13T10:40:36.133Z,20
2017-02-13T10:41:44.224Z,20
2017-02-13T10:42:52.308Z,20
2017-02-13T10:44:00.396Z,20
2017-02-13T10:45:08.483Z,20
2017-02-13T10:46:16.572Z,20
2017-02-13T10:47:24.654Z,20
2017-02-13T10:48:32.744Z,24
2017-02-13T10:49:40.834Z,24
2017-02-13T10:50:48.920Z,28
2017-02-13T10:51:57.004Z,24
2017-02-13T10:53:05.097Z,24
2017-02-13T10:54:13.173Z,24
2017-02-13T10:55:21.258Z,20
2017-02-13T10:56:29.347Z,24
2017-02-13T10:57:37.431Z,24
2017-02-13T10:58:45.519Z,28
2017-02-13T10:59:53.601Z,24
2017-02-13T11:01:01.691Z,28
2017-02-13T11:02:09.779Z,28
2017-02-13T11:03:17.860Z,28
2017-02-13T11:04:25.955Z,28
2017-02-13T11:05:34.272Z,28
2017-02-13T11:06:42.126Z,24
2017-02-13T11:07:50.217Z,28
2017-02-13T11:08:58.301Z,28
2017-02-13T11:10:06.386Z,28
2017-02-13T11:11:14.477Z,24
2017-02-13T11:12:22.573Z,24
2017-02-13T11:13:30.656Z,28
2017-02-13T11:14:38.747Z,28
2017-02-13T11:15:46.833Z,28
2017-02-13T11:16:54.917Z,24
2017-02-13T11:18:03.001Z,28
2017-02-13T11:19:11.086Z,28
2017-02-13T11:20:19.180Z,24
2017-02-13T11:21:27.899Z,28
2017-02-13T11:22:35.818Z,24
2017-02-13T11:23:43.430Z,24
2017-02-13T11:24:51.521Z,24
2017-02-13T11:25:59.613Z,28
2017-02-13T11:27:07.698Z,24
2017-02-13T11:28:15.786Z,24
2017-02-13T11:29:23.874Z,24
2017-02-13T11:30:31.956Z,24
2017-02-13T11:31:40.050Z,28
2017-02-13T11:32:48.140Z,28
2017-02-13T11:33:56.221Z,32
2017-02-13T11:35:04.311Z,36
2017-02-13T11:36:12.396Z,32
2017-02-13T11:37:20.483Z,36
2017-02-13T11:38:28.567Z,28
2017-02-13T11:39:36.658Z,24
2017-02-13T11:39:36.670Z,24
2017-02-13T11:40:44.744Z,28
2017-02-13T11:41:52.828Z,28
2017-02-13T11:43:00.919Z,40
2017-02-13T11:44:09.012Z,36
2017-02-13T11:45:17.100Z,36
2017-02-13T11:46:25.179Z,32
2017-02-13T11:47:33.267Z,24
2017-02-13T11:48:41.352Z,24
2017-02-13T11:49:49.470Z,24
2017-02-13T11:50:57.838Z,24
2017-02-13T11:52:05.640Z,24
2017-02-13T11:53:13.699Z,24
2017-02-13T11:54:21.782Z,24
2017-02-13T11:55:29.872Z,24
2017-02-13T11:56:38.039Z,24
2017-02-13T11:57:46.041Z,24
2017-02-13T11:58:54.134Z,20
2017-02-13T12:00:02.221Z,20
2017-02-13T12:01:10.307Z,24
2017-02-13T12:02:18.397Z,20
2017-02-13T12:03:26.479Z,24
2017-02-13T12:04:34.563Z,20
2017-02-13T12:05:42.646Z,20
2017-02-13T12:06:50.731Z,24
2017-02-13T12:07:58.827Z,24
2017-02-13T12:09:06.913Z,24
2017-02-13T12:10:14.998Z,24
2017-02-13T12:11:23.091Z,24
2017-02-13T12:12:31.175Z,20
2017-02-13T12:13:39.288Z,24
2017-02-13T12:14:47.347Z,24
2017-02-13T12:15:55.433Z,20
2017-02-13T12:17:03.522Z,24
2017-02-13T12:18:11.606Z,24
2017-02-13T12:19:19.696Z,28
2017-02-13T12:20:27.780Z,24
2017-02-13T12:21:35.870Z,28
2017-02-13T12:22:43.960Z,28
2017-02-13T12:23:52.047Z,24
2017-02-13T12:25:00.133Z,20
2017-02-13T12:26:08.213Z,20
2017-02-13T12:27:16.302Z,20
2017-02-13T12:28:24.387Z,20
2017-02-13T12:29:32.469Z,24
2017-02-13T12:30:40.560Z,20
2017-02-13T12:31:48.645Z,20
2017-02-13T12:32:56.727Z,20
2017-02-13T12:34:04.818Z,20
2017-02-13T12:35:12.903Z,24
2017-02-13T12:36:20.992Z,20
2017-02-13T12:37:29.067Z,24
2017-02-13T12:38:37.154Z,24
2017-02-13T12:39:45.245Z,20
2017-02-13T12:40:53.328Z,24
2017-02-13T12:42:01.586Z,24
2017-02-13T12:43:09.503Z,24
2017-02-13T12:45:32.709Z,20
2017-02-13T12:45:34.068Z,20
2017-02-13T12:46:33.759Z,20
2017-02-13T12:47:41.851Z,28
2017-02-13T12:48:49.942Z,24
2017-02-13T12:49:58.063Z,28
2017-02-13T12:51:06.107Z,24
2017-02-13T12:52:14.197Z,24
2017-02-13T12:53:22.279Z,20
2017-02-13T12:54:30.367Z,20
2017-02-13T12:55:38.456Z,28
2017-02-13T12:56:46.542Z,24
2017-02-13T12:57:54.634Z,24
2017-02-13T12:59:02.730Z,20
2017-02-13T13:00:10.820Z,24
2017-02-13T13:01:18.900Z,24
2017-02-13T13:02:26.991Z,20
2017-02-13T13:03:35.079Z,16
2017-02-13T13:04:43.171Z,16
2017-02-13T13:05:51.697Z,20
2017-02-13T13:06:59.349Z,20
2017-02-13T13:08:07.434Z,16
2017-02-13T13:09:15.518Z,16
2017-02-13T13:10:23.605Z,20
2017-02-13T13:11:31.701Z,16
2017-02-13T13:12:39.785Z,24
2017-02-13T13:13:47.876Z,24
2017-02-13T13:14:55.964Z,20
2017-02-13T13:16:04.056Z,20
2017-02-13T13:17:12.143Z,20
2017-02-13T13:18:20.228Z,20
2017-02-13T13:19:28.320Z,20
2017-02-13T13:20:36.486Z,16
2017-02-13T13:21:44.499Z,20
2017-02-13T13:22:52.586Z,20
2017-02-13T13:24:00.670Z,16
2017-02-13T13:25:08.754Z,20
2017-02-13T13:26:16.848Z,20
2017-02-13T13:27:24.945Z,16
2017-02-13T13:28:33.037Z,16
2017-02-13T13:29:41.132Z,20
2017-02-13T13:30:49.226Z,20
2017-02-13T13:31:57.307Z,20
2017-02-13T13:33:05.399Z,20
2017-02-13T13:34:13.492Z,20
2017-02-13T13:35:21.577Z,20
2017-02-13T13:36:29.670Z,20
2017-02-13T13:37:37.755Z,20
2017-02-13T13:38:45.842Z,24
2017-02-13T13:39:53.929Z,20
2017-02-13T13:41:02.008Z,24
2017-02-13T13:42:10.102Z,24
2017-02-13T13:43:18.184Z,24
2017-02-13T13:44:26.282Z,24
2017-02-13T13:45:34.373Z,16
2017-02-13T13:46:42.457Z,16
2017-02-13T13:47:50.547Z,16
2017-02-13T13:48:58.635Z,16
2017-02-13T13:50:06.722Z,16
2017-02-13T13:51:14.809Z,16
2017-02-13T13:52:22.897Z,20
2017-02-13T13:53:30.987Z,20
2017-02-13T13:54:39.080Z,16
2017-02-13T13:55:47.204Z,20
2017-02-13T13:56:55.269Z,16
2017-02-13T13:58:03.359Z,20
2017-02-13T13:59:11.445Z,20
2017-02-13T14:00:19.528Z,20
2017-02-13T14:01:27.618Z,20
2017-02-13T14:02:35.709Z,12
2017-02-13T14:03:43.789Z,12
2017-02-13T14:04:51.870Z,12
2017-02-13T14:05:59.956Z,20
2017-02-13T14:07:08.043Z,20
2017-02-13T14:08:16.125Z,16
2017-02-13T14:09:24.260Z,20
2017-02-13T14:10:32.531Z,16
2017-02-13T14:11:40.388Z,16
2017-02-13T14:12:48.613Z,20
2017-02-13T14:13:56.732Z,20
2017-02-13T14:15:04.834Z,16
2017-02-13T14:16:12.848Z,20
2017-02-13T14:17:20.975Z,24
2017-02-13T14:18:28.916Z,16
2017-02-13T14:19:37.040Z,12
2017-02-13T14:20:45.075Z,12
2017-02-13T14:21:53.571Z,16
2017-02-13T14:23:01.249Z,12
2017-02-13T14:24:09.330Z,12
2017-02-13T14:25:17.418Z,12
2017-02-13T14:26:25.648Z,16
2017-02-13T14:27:33.592Z,12
2017-02-13T14:28:41.689Z,12
2017-02-13T14:29:49.767Z,12
2017-02-13T14:30:57.850Z,12
2017-02-13T14:32:05.933Z,8
2017-02-13T14:33:14.025Z,12
2017-02-13T14:34:22.153Z,8
2017-02-13T14:35:30.192Z,8
2017-02-13T14:36:38.282Z,12
2017-02-13T14:37:46.367Z,8
2017-02-13T14:38:54.454Z,12
2017-02-13T14:40:02.534Z,12
2017-02-13T14:41:10.628Z,12
2017-02-13T14:42:18.770Z,12
2017-02-13T14:43:26.791Z,12
2017-02-13T14:44:34.879Z,12
2017-02-13T14:45:42.965Z,8
2017-02-13T14:46:51.047Z,12
2017-02-13T14:47:59.132Z,8
2017-02-13T14:49:07.217Z,8
2017-02-13T14:50:15.303Z,12
2017-02-13T14:51:23.388Z,12
2017-02-13T14:52:31.478Z,12
2017-02-13T14:53:39.570Z,16
2017-02-13T14:54:47.882Z,12
2017-02-13T14:55:55.858Z,12
2017-02-13T14:57:03.874Z,12
2017-02-13T14:58:12.177Z,12
2017-02-13T14:59:20.080Z,12
2017-02-13T15:00:28.130Z,12
2017-02-13T15:01:36.350Z,12
2017-02-13T15:02:44.528Z,12
2017-02-13T15:03:52.549Z,8
2017-02-13T15:05:00.731Z,12
2017-02-13T15:06:08.613Z,12
2017-02-13T15:07:17.143Z,8
2017-02-13T15:08:24.801Z,8
2017-02-13T15:09:32.793Z,8
2017-02-13T15:10:40.875Z,8
2017-02-13T15:11:48.960Z,8
2017-02-13T15:12:57.050Z,12
2017-02-13T15:14:05.135Z,8
2017-02-13T15:15:13.215Z,12
2017-02-13T15:16:21.365Z,8
2017-02-13T15:17:29.406Z,8
2017-02-13T15:18:37.487Z,8
2017-02-13T15:19:45.572Z,8
2017-02-13T15:20:53.660Z,8
2017-02-13T15:22:01.751Z,8
2017-02-13T15:23:09.833Z,4
2017-02-13T15:24:17.929Z,8
2017-02-13T15:25:26.020Z,4
2017-02-13T15:26:34.103Z,4
2017-02-13T15:27:42.184Z,8
2017-02-13T15:28:50.271Z,4
2017-02-13T15:29:58.768Z,4
2017-02-13T15:31:06.471Z,8
2017-02-13T15:32:14.942Z,4
2017-02-13T15:33:22.646Z,4
2017-02-13T15:34:30.699Z,4
2017-02-13T15:35:38.787Z,8
2017-02-13T15:36:46.870Z,4
2017-02-13T15:37:54.956Z,4
2017-02-13T15:39:03.042Z,4
2017-02-13T15:40:11.128Z,4
2017-02-13T15:41:19.217Z,4
2017-02-13T15:42:27.300Z,4
2017-02-13T15:43:35.388Z,4
2017-02-13T15:44:43.476Z,4
2017-02-13T15:45:51.556Z,4
2017-02-13T15:46:59.643Z,4
2017-02-13T15:48:07.735Z,4
2017-02-13T15:49:16.047Z,4
2017-02-13T15:50:25.059Z,4
2017-02-13T15:51:32.367Z,4
2017-02-13T15:52:40.619Z,4
2017-02-13T15:53:48.380Z,4
2017-02-13T15:54:56.290Z,4
2017-02-13T15:56:04.576Z,4
2017-02-13T15:57:12.458Z,4
2017-02-13T15:58:20.737Z,4
2017-02-13T15:59:28.760Z,4
2017-02-13T16:00:36.760Z,4
2017-02-13T16:01:44.845Z,0
2017-02-13T16:02:52.930Z,4
2017-02-13T16:04:00.984Z,4
2017-02-13T16:05:09.234Z,4
2017-02-13T16:06:17.168Z,4
2017-02-13T16:07:25.311Z,4
2017-02-13T16:08:33.311Z,0
2017-02-13T16:09:41.479Z,4
2017-02-13T16:10:49.533Z,0
2017-02-13T16:11:57.593Z,0
2017-02-13T16:13:05.730Z,0
2017-02-13T16:14:13.930Z,0
2017-02-13T16:15:21.862Z,4
2017-02-13T16:16:30.166Z,0
2017-02-13T16:17:38.669Z,0
2017-02-13T16:18:46.189Z,0
2017-02-13T16:19:54.187Z,0
2017-02-13T16:21:02.276Z,0
2017-02-13T16:22:10.353Z,0
2017-02-13T16:23:18.446Z,0
2017-02-13T16:24:26.532Z,4
2017-02-13T16:25:34.618Z,4
2017-02-13T16:26:42.829Z,4
2017-02-13T16:27:51.095Z,4
2017-02-13T16:28:58.877Z,0
2017-02-13T16:30:06.959Z,4
2017-02-13T16:31:15.048Z,4